createdAt,value
2023-04-22T00:02:02.803Z,11.65
2023-04-22T00:04:30.066Z,11.45
2023-04-22T00:06:56.882Z,12.45
2023-04-22T00:09:24.171Z,12.27
2023-04-22T00:11:50.674Z,13.65
2023-04-22T00:14:17.561Z,13.93
2023-04-22T00:16:44.244Z,12.00
2023-04-22T00:19:10.996Z,12.10
2023-04-22T00:21:37.482Z,12.68
2023-04-22T00:24:04.141Z,13.32
2023-04-22T00:26:30.630Z,13.10
2023-04-22T00:28:57.487Z,13.45
2023-04-22T00:31:24.125Z,14.40
2023-04-22T00:33:50.895Z,12.23
2023-04-22T00:36:17.419Z,12.80
2023-04-22T00:38:46.995Z,10.93
2023-04-22T00:41:13.662Z,12.45
2023-04-22T00:43:40.239Z,11.75
2023-04-22T00:46:06.739Z,11.05
2023-04-22T00:48:33.302Z,11.82
2023-04-22T00:50:59.716Z,11.60
2023-04-22T00:53:26.300Z,12.18
2023-04-22T00:55:52.871Z,11.23
2023-04-22T00:58:21.091Z,11.95
2023-04-22T01:00:47.636Z,11.70
2023-04-22T01:03:14.548Z,12.45
2023-04-22T01:05:41.616Z,11.68
2023-04-22T01:08:08.214Z,12.80
2023-04-22T01:10:35.453Z,12.63
2023-04-22T01:13:01.920Z,11.68
2023-04-22T01:15:28.866Z,11.82
2023-04-22T01:17:56.446Z,12.63
2023-04-22T01:20:23.420Z,11.50
2023-04-22T01:22:50.853Z,10.48
2023-04-22T01:25:17.686Z,11.23
2023-04-22T01:27:44.265Z,11.60
2023-04-22T01:30:11.527Z,11.38
2023-04-22T01:32:39.031Z,11.52
2023-04-22T01:35:05.968Z,12.18
2023-04-22T01:37:32.505Z,13.15
2023-04-22T01:39:59.361Z,12.77
2023-04-22T01:42:26.099Z,11.32
2023-04-22T01:44:52.720Z,11.98
2023-04-22T01:47:19.296Z,11.32
2023-04-22T01:49:45.937Z,11.82
2023-04-22T01:52:12.657Z,13.40
2023-04-22T01:54:39.232Z,11.93
2023-04-22T01:57:10.945Z,11.35
2023-04-22T01:59:38.191Z,11.40
2023-04-22T02:02:04.882Z,12.20
2023-04-22T02:04:31.619Z,13.05
2023-04-22T02:06:58.081Z,11.68
2023-04-22T02:09:24.727Z,12.77
2023-04-22T02:11:51.154Z,12.13
2023-04-22T02:14:17.716Z,13.35
2023-04-22T02:16:44.343Z,11.93
2023-04-22T02:19:10.939Z,12.35
2023-04-22T02:21:37.524Z,11.30
2023-04-22T02:24:04.682Z,12.85
2023-04-22T02:26:31.262Z,13.05
2023-04-22T02:28:57.728Z,12.80
2023-04-22T02:31:24.243Z,13.30
2023-04-22T02:33:50.806Z,13.23
2023-04-22T02:36:17.484Z,12.55
2023-04-22T02:38:44.153Z,13.40
2023-04-22T02:41:10.767Z,11.95
2023-04-22T02:43:37.255Z,12.50
2023-04-22T02:46:03.797Z,13.43
2023-04-22T02:48:30.313Z,13.27
2023-04-22T02:50:56.799Z,13.82
2023-04-22T02:53:23.324Z,13.32
2023-04-22T02:55:49.914Z,13.63
2023-04-22T02:58:16.874Z,12.52
2023-04-22T03:00:43.468Z,12.82
2023-04-22T03:03:10.136Z,14.63
2023-04-22T03:05:36.779Z,14.77
2023-04-22T03:08:03.266Z,13.73
2023-04-22T03:10:29.742Z,13.57
2023-04-22T03:12:56.329Z,14.43
2023-04-22T03:15:22.894Z,12.73
2023-04-22T03:17:49.765Z,13.45
2023-04-22T03:20:16.528Z,13.18
2023-04-22T03:22:43.047Z,13.60
2023-04-22T03:25:10.960Z,14.20
2023-04-22T03:27:37.544Z,12.85
2023-04-22T03:30:04.846Z,12.98
2023-04-22T03:32:31.474Z,13.88
2023-04-22T03:34:58.029Z,13.13
2023-04-22T03:37:24.524Z,14.73
2023-04-22T03:39:51.070Z,13.48
2023-04-22T03:42:17.660Z,13.38
2023-04-22T03:44:44.177Z,13.77
2023-04-22T03:47:10.646Z,13.75
2023-04-22T03:49:37.804Z,12.68
2023-04-22T03:52:04.725Z,12.18
2023-04-22T03:54:31.207Z,10.93
2023-04-22T03:56:58.174Z,11.25
2023-04-22T03:59:24.824Z,11.85
2023-04-22T04:01:51.657Z,13.13
2023-04-22T04:04:18.417Z,14.27
2023-04-22T04:06:45.055Z,13.50
2023-04-22T04:09:12.183Z,12.98
2023-04-22T04:11:38.726Z,12.32
2023-04-22T04:14:05.285Z,12.60
2023-04-22T04:16:31.970Z,12.00
2023-04-22T04:18:58.478Z,12.07
2023-04-22T04:21:25.052Z,12.68
2023-04-22T04:23:51.548Z,12.30
2023-04-22T04:26:18.298Z,12.45
2023-04-22T04:28:44.755Z,12.27
2023-04-22T04:31:11.345Z,11.95
2023-04-22T04:33:37.889Z,11.98
2023-04-22T04:36:04.551Z,12.05
2023-04-22T04:38:31.169Z,12.20
2023-04-22T04:40:58.137Z,11.90
2023-04-22T04:43:26.353Z,11.43
2023-04-22T04:45:53.148Z,12.50
2023-04-22T04:48:25.175Z,13.05
2023-04-22T04:50:54.115Z,11.32
2023-04-22T04:53:22.302Z,11.07
2023-04-22T04:55:49.168Z,11.63
2023-04-22T04:58:15.704Z,11.68
2023-04-22T05:00:42.192Z,10.57
2023-04-22T05:03:08.906Z,12.27
2023-04-22T05:05:35.766Z,13.30
2023-04-22T05:08:02.262Z,13.02
2023-04-22T05:10:28.694Z,11.50
2023-04-22T05:12:55.131Z,11.68
2023-04-22T05:15:21.587Z,12.23
2023-04-22T05:17:48.222Z,12.93
2023-04-22T05:20:14.792Z,11.73
2023-04-22T05:22:45.992Z,10.73
2023-04-22T05:25:12.497Z,11.77
2023-04-22T05:27:39.125Z,11.52
2023-04-22T05:30:06.368Z,11.45
2023-04-22T05:32:32.881Z,11.68
2023-04-22T05:34:59.402Z,10.75
2023-04-22T05:37:25.929Z,12.60
2023-04-22T05:39:52.433Z,11.35
2023-04-22T05:42:19.355Z,11.15
2023-04-22T05:44:45.811Z,11.30
2023-04-22T05:47:12.297Z,11.77
2023-04-22T05:49:38.930Z,10.13
2023-04-22T05:52:05.665Z,10.70
2023-04-22T05:54:32.154Z,10.75
2023-04-22T05:56:58.719Z,12.48
2023-04-22T05:59:25.414Z,9.55
2023-04-22T06:01:52.040Z,11.88
2023-04-22T06:04:18.979Z,11.40
2023-04-22T06:06:45.598Z,12.40
2023-04-22T06:09:12.047Z,11.57
2023-04-22T06:11:38.604Z,11.07
2023-04-22T06:14:05.123Z,12.55
2023-04-22T06:16:31.700Z,11.82
2023-04-22T06:18:58.295Z,10.95
2023-04-22T06:21:24.730Z,11.45
2023-04-22T06:23:51.277Z,10.25
2023-04-22T06:26:17.820Z,11.30
2023-04-22T06:28:44.424Z,11.00
2023-04-22T06:31:11.075Z,11.40
2023-04-22T06:33:37.689Z,12.57
2023-04-22T06:36:05.164Z,11.25
2023-04-22T06:38:31.797Z,11.40
2023-04-22T06:40:58.337Z,12.32
2023-04-22T06:43:24.932Z,11.90
2023-04-22T06:45:51.445Z,11.23
2023-04-22T06:48:18.018Z,11.80
2023-04-22T06:50:44.593Z,10.60
2023-04-22T06:53:11.248Z,11.82
2023-04-22T06:55:37.817Z,11.35
2023-04-22T06:58:04.400Z,11.07
2023-04-22T07:00:30.951Z,10.52
2023-04-22T07:02:57.826Z,10.60
2023-04-22T07:05:24.533Z,11.90
2023-04-22T07:07:51.384Z,10.23
2023-04-22T07:10:17.835Z,11.05
2023-04-22T07:12:45.397Z,10.85
2023-04-22T07:15:11.954Z,10.68
2023-04-22T07:17:38.715Z,9.95
2023-04-22T07:20:05.531Z,10.07
2023-04-22T18:37:29.737Z,9.70
2023-04-22T18:39:59.213Z,14.23
2023-04-22T18:42:25.851Z,18.52
2023-04-22T18:44:52.305Z,17.95
2023-04-22T18:47:18.817Z,16.75
2023-04-22T18:49:45.583Z,16.05
2023-04-22T18:52:12.366Z,16.33
2023-04-22T18:54:39.296Z,16.88
2023-04-22T18:57:06.290Z,16.23
2023-04-22T18:59:32.824Z,15.68
2023-04-22T19:01:59.425Z,16.20
2023-04-22T19:04:26.293Z,16.73
2023-04-22T19:06:52.950Z,18.60
2023-04-22T19:09:19.680Z,16.50
2023-04-22T19:11:47.589Z,16.75
2023-04-22T19:14:14.707Z,16.60
2023-04-22T19:16:41.268Z,17.33
2023-04-22T19:19:08.141Z,17.27
2023-04-22T19:21:34.823Z,18.90
2023-04-22T19:24:01.401Z,20.83
2023-04-22T19:26:29.443Z,20.23
2023-04-22T19:28:56.100Z,20.23
2023-04-22T19:31:22.800Z,20.33
2023-04-22T19:33:49.531Z,18.33
2023-04-22T19:36:16.199Z,17.90
2023-04-22T19:38:43.475Z,18.63
2023-04-22T19:41:11.599Z,18.58
2023-04-22T19:43:38.494Z,19.80
2023-04-22T19:46:05.265Z,19.13
2023-04-22T19:48:32.090Z,20.33
2023-04-22T19:50:59.138Z,18.85
2023-04-22T19:53:26.061Z,21.27
2023-04-22T19:55:52.767Z,20.27
2023-04-22T19:58:19.787Z,18.65
2023-04-22T20:00:46.744Z,17.13
2023-04-22T20:03:14.634Z,20.65
2023-04-22T20:05:41.705Z,18.95
2023-04-22T20:08:09.311Z,17.80
2023-04-22T20:10:36.772Z,16.92
2023-04-22T20:13:04.684Z,18.98
2023-04-22T20:15:31.295Z,17.45
2023-04-22T20:17:57.934Z,17.88
2023-04-22T20:20:24.661Z,18.73
2023-04-22T20:22:52.284Z,18.00
2023-04-22T20:25:19.052Z,18.08
2023-04-22T20:27:45.754Z,18.48
2023-04-22T20:30:13.720Z,17.10
2023-04-22T20:32:40.500Z,16.13
2023-04-22T20:35:07.470Z,16.55
2023-04-22T20:37:34.650Z,17.15
2023-04-22T20:40:04.674Z,16.50
2023-04-22T20:42:33.136Z,15.88
2023-04-22T20:44:59.741Z,16.08
2023-04-22T20:47:26.510Z,14.70
2023-04-22T20:49:53.080Z,17.48
2023-04-22T20:52:19.735Z,20.48
2023-04-22T20:54:46.629Z,16.15
2023-04-22T20:57:13.352Z,13.27
2023-04-22T20:59:39.885Z,12.68
2023-04-22T21:02:07.007Z,12.18
2023-04-22T21:04:33.871Z,12.65
2023-04-22T21:07:03.960Z,12.27
2023-04-22T21:09:31.156Z,10.90
2023-04-22T21:11:57.881Z,11.15
2023-04-22T21:14:26.538Z,10.93
2023-04-22T21:17:12.077Z,11.63
2023-04-22T21:19:38.902Z,10.52
2023-04-22T21:22:06.200Z,11.20
2023-04-22T21:24:35.008Z,9.98
2023-04-22T21:27:01.844Z,10.30
2023-04-22T21:29:29.032Z,10.90
2023-04-22T21:32:08.059Z,11.52
2023-04-22T21:34:35.507Z,11.95
2023-04-22T21:37:02.040Z,11.98
2023-04-22T21:39:29.454Z,11.32
2023-04-22T21:41:55.919Z,13.60
2023-04-22T21:44:22.529Z,12.90
2023-04-22T21:46:48.956Z,15.32
2023-04-22T21:49:15.674Z,12.82
2023-04-22T21:51:42.201Z,11.32
2023-04-22T21:54:08.690Z,12.30
2023-04-22T21:56:35.927Z,13.43
2023-04-22T21:59:02.526Z,12.48
2023-04-22T22:01:29.156Z,13.15
2023-04-22T22:03:55.792Z,11.98
2023-04-22T22:06:22.464Z,11.32
2023-04-22T22:08:48.965Z,10.73
2023-04-22T22:11:27.536Z,10.20
2023-04-22T22:13:57.175Z,10.40
2023-04-22T22:16:24.789Z,9.30
2023-04-22T22:18:51.940Z,9.98
2023-04-22T22:21:18.617Z,8.80
2023-04-22T22:23:45.234Z,9.60
2023-04-22T22:26:11.688Z,8.32
2023-04-22T22:28:38.419Z,7.50
2023-04-22T22:31:04.939Z,8.25
2023-04-22T22:33:31.414Z,7.88
2023-04-22T22:35:57.941Z,6.63
2023-04-22T22:38:24.465Z,6.82
2023-04-22T22:40:51.184Z,5.90
2023-04-22T22:43:17.675Z,6.78
2023-04-22T22:45:44.411Z,6.55
2023-04-22T22:48:11.161Z,6.22
2023-04-22T22:50:37.889Z,6.03
2023-04-22T22:53:04.484Z,6.47
2023-04-22T22:55:31.059Z,6.40
2023-04-22T22:57:57.533Z,6.43
2023-04-22T23:00:24.203Z,5.97
2023-04-22T23:02:50.755Z,6.65
2023-04-22T23:05:17.500Z,6.28
2023-04-22T23:07:44.073Z,6.10
2023-04-22T23:10:10.736Z,6.03
2023-04-22T23:12:37.262Z,6.20
2023-04-22T23:15:04.661Z,7.07
2023-04-22T23:17:31.248Z,6.57
2023-04-22T23:19:58.106Z,6.57
2023-04-22T23:22:24.823Z,7.18
2023-04-22T23:24:51.442Z,6.47
2023-04-22T23:27:18.818Z,7.50
2023-04-22T23:29:45.533Z,6.55
2023-04-22T23:32:14.964Z,6.72
2023-04-22T23:34:44.459Z,6.75
2023-04-22T23:37:14.288Z,5.90
2023-04-22T23:39:42.102Z,6.78
2023-04-22T23:42:08.598Z,6.43
2023-04-22T23:44:35.159Z,6.65
2023-04-22T23:47:01.698Z,7.03
2023-04-22T23:49:29.018Z,5.90
2023-04-22T23:51:55.864Z,6.05
2023-04-22T23:54:22.411Z,5.97
2023-04-22T23:56:48.907Z,6.10
2023-04-22T23:59:15.658Z,4.75
